sensor_id;sensor_type;location;lat;lon;timestamp;temperature;humidity
2489;DHT22;1255;48.716;9.124;2023-07-30T00:01:09;18.10;99.90
2489;DHT22;1255;48.716;9.124;2023-07-30T00:03:37;18.20;99.90
2489;DHT22;1255;48.716;9.124;2023-07-30T00:06:04;18.10;99.90
2489;DHT22;1255;48.716;9.124;2023-07-30T00:08:30;18.10;99.90
2489;DHT22;1255;48.716;9.124;2023-07-30T00:10:57;18.10;99.90
2489;DHT22;1255;48.716;9.124;2023-07-30T00:13:24;18.00;99.90
2489;DHT22;1255;48.716;9.124;2023-07-30T00:15:51;18.00;99.90
2489;DHT22;1255;48.716;9.124;2023-07-30T00:18:18;18.00;99.90
2489;DHT22;1255;48.716;9.124;2023-07-30T00:20:46;17.90;99.90
2489;DHT22;1255;48.716;9.124;2023-07-30T00:23:12;17.90;99.90
2489;DHT22;1255;48.716;9.124;2023-07-30T00:25:38;18.00;99.90
2489;DHT22;1255;48.716;9.124;2023-07-30T00:28:05;17.90;99.90
2489;DHT22;1255;48.716;9.124;2023-07-30T00:30:31;17.90;99.90
2489;DHT22;1255;48.716;9.124;2023-07-30T00:32:58;17.80;99.90
2489;DHT22;1255;48.716;9.124;2023-07-30T00:35:25;17.90;99.90
2489;DHT22;1255;48.716;9.124;2023-07-30T00:37:53;17.80;99.90
2489;DHT22;1255;48.716;9.124;2023-07-30T00:40:20;17.80;99.90
2489;DHT22;1255;48.716;9.124;2023-07-30T00:42:46;17.90;99.90
2489;DHT22;1255;48.716;9.124;2023-07-30T00:45:13;17.80;99.90
2489;DHT22;1255;48.716;9.124;2023-07-30T00:47:40;17.90;99.90
2489;DHT22;1255;48.716;9.124;2023-07-30T00:50:08;17.90;99.90
2489;DHT22;1255;48.716;9.124;2023-07-30T00:52:36;17.90;99.90
2489;DHT22;1255;48.716;9.124;2023-07-30T00:55:07;17.90;99.90
2489;DHT22;1255;48.716;9.124;2023-07-30T00:57:34;17.90;99.90
2489;DHT22;1255;48.716;9.124;2023-07-30T01:00:03;17.80;99.90
2489;DHT22;1255;48.716;9.124;2023-07-30T01:02:31;17.80;99.90
2489;DHT22;1255;48.716;9.124;2023-07-30T01:04:58;17.80;99.90
2489;DHT22;1255;48.716;9.124;2023-07-30T01:07:25;17.80;99.90
2489;DHT22;1255;48.716;9.124;2023-07-30T01:09:52;17.80;99.90
2489;DHT22;1255;48.716;9.124;2023-07-30T01:12:21;17.80;99.90
2489;DHT22;1255;48.716;9.124;2023-07-30T01:14:47;17.80;99.90
2489;DHT22;1255;48.716;9.124;2023-07-30T01:17:15;17.80;99.90
2489;DHT22;1255;48.716;9.124;2023-07-30T01:19:42;17.80;99.90
2489;DHT22;1255;48.716;9.124;2023-07-30T01:22:10;17.80;99.90
2489;DHT22;1255;48.716;9.124;2023-07-30T01:24:37;17.80;99.90
2489;DHT22;1255;48.716;9.124;2023-07-30T01:27:07;17.80;99.90
2489;DHT22;1255;48.716;9.124;2023-07-30T01:29:40;17.80;99.90
2489;DHT22;1255;48.716;9.124;2023-07-30T01:32:11;17.80;99.90
2489;DHT22;1255;48.716;9.124;2023-07-30T01:34:41;17.80;99.90
2489;DHT22;1255;48.716;9.124;2023-07-30T01:37:12;17.80;99.90
2489;DHT22;1255;48.716;9.124;2023-07-30T01:39:40;17.80;99.90
2489;DHT22;1255;48.716;9.124;2023-07-30T01:42:11;17.80;99.90
2489;DHT22;1255;48.716;9.124;2023-07-30T01:44:38;17.80;99.90
2489;DHT22;1255;48.716;9.124;2023-07-30T01:47:05;17.80;99.90
2489;DHT22;1255;48.716;9.124;2023-07-30T01:49:32;17.80;99.90
2489;DHT22;1255;48.716;9.124;2023-07-30T01:51:59;17.80;99.90
2489;DHT22;1255;48.716;9.124;2023-07-30T01:54:27;17.80;99.90
2489;DHT22;1255;48.716;9.124;2023-07-30T01:56:54;17.70;99.90
2489;DHT22;1255;48.716;9.124;2023-07-30T01:59:20;17.70;99.90
2489;DHT22;1255;48.716;9.124;2023-07-30T02:01:47;17.70;99.90
2489;DHT22;1255;48.716;9.124;2023-07-30T02:04:14;17.70;99.90
2489;DHT22;1255;48.716;9.124;2023-07-30T02:06:42;17.60;99.90
2489;DHT22;1255;48.716;9.124;2023-07-30T02:09:08;17.60;99.90
2489;DHT22;1255;48.716;9.124;2023-07-30T02:11:36;17.60;99.90
2489;DHT22;1255;48.716;9.124;2023-07-30T02:14:03;17.60;99.90
2489;DHT22;1255;48.716;9.124;2023-07-30T02:16:30;17.60;99.90
2489;DHT22;1255;48.716;9.124;2023-07-30T02:18:56;17.60;99.90
2489;DHT22;1255;48.716;9.124;2023-07-30T02:21:23;17.50;99.90
2489;DHT22;1255;48.716;9.124;2023-07-30T02:23:50;17.50;99.90
2489;DHT22;1255;48.716;9.124;2023-07-30T02:26:16;17.50;99.90
2489;DHT22;1255;48.716;9.124;2023-07-30T02:28:44;17.50;99.90
2489;DHT22;1255;48.716;9.124;2023-07-30T02:31:11;17.40;99.90
2489;DHT22;1255;48.716;9.124;2023-07-30T02:33:38;17.40;99.90
2489;DHT22;1255;48.716;9.124;2023-07-30T02:36:05;17.40;99.90
2489;DHT22;1255;48.716;9.124;2023-07-30T02:38:31;17.40;99.90
2489;DHT22;1255;48.716;9.124;2023-07-30T02:40:58;17.40;99.90
2489;DHT22;1255;48.716;9.124;2023-07-30T02:43:25;17.40;99.90
2489;DHT22;1255;48.716;9.124;2023-07-30T02:45:53;17.40;99.90
2489;DHT22;1255;48.716;9.124;2023-07-30T02:48:19;17.40;99.90
2489;DHT22;1255;48.716;9.124;2023-07-30T02:50:46;17.40;99.90
2489;DHT22;1255;48.716;9.124;2023-07-30T02:53:13;17.40;99.90
2489;DHT22;1255;48.716;9.124;2023-07-30T02:55:39;17.40;99.90
2489;DHT22;1255;48.716;9.124;2023-07-30T02:58:06;17.40;99.90
2489;DHT22;1255;48.716;9.124;2023-07-30T03:00:33;17.40;99.90
2489;DHT22;1255;48.716;9.124;2023-07-30T03:03:01;17.30;99.90
2489;DHT22;1255;48.716;9.124;2023-07-30T03:05:27;17.30;99.90
2489;DHT22;1255;48.716;9.124;2023-07-30T03:07:54;17.30;99.90
2489;DHT22;1255;48.716;9.124;2023-07-30T03:10:21;17.20;99.90
2489;DHT22;1255;48.716;9.124;2023-07-30T03:12:47;17.20;99.90
2489;DHT22;1255;48.716;9.124;2023-07-30T03:15:14;17.10;99.90
2489;DHT22;1255;48.716;9.124;2023-07-30T03:17:41;17.10;99.90
2489;DHT22;1255;48.716;9.124;2023-07-30T03:20:10;17.10;99.90
2489;DHT22;1255;48.716;9.124;2023-07-30T03:22:36;17.10;99.90
2489;DHT22;1255;48.716;9.124;2023-07-30T03:25:04;17.00;99.90
2489;DHT22;1255;48.716;9.124;2023-07-30T03:27:31;17.00;99.90
2489;DHT22;1255;48.716;9.124;2023-07-30T03:29:57;17.00;99.90
2489;DHT22;1255;48.716;9.124;2023-07-30T03:32:24;17.00;99.90
2489;DHT22;1255;48.716;9.124;2023-07-30T03:34:51;17.00;99.90
2489;DHT22;1255;48.716;9.124;2023-07-30T03:37:19;17.00;99.90
2489;DHT22;1255;48.716;9.124;2023-07-30T03:39:45;17.00;99.90
2489;DHT22;1255;48.716;9.124;2023-07-30T03:42:12;17.00;99.90
2489;DHT22;1255;48.716;9.124;2023-07-30T03:44:39;17.00;99.90
2489;DHT22;1255;48.716;9.124;2023-07-30T03:47:05;17.10;99.90
2489;DHT22;1255;48.716;9.124;2023-07-30T03:49:32;17.10;99.90
2489;DHT22;1255;48.716;9.124;2023-07-30T03:51:59;17.10;99.90
2489;DHT22;1255;48.716;9.124;2023-07-30T03:54:27;17.10;99.90
2489;DHT22;1255;48.716;9.124;2023-07-30T03:56:54;17.10;99.90
2489;DHT22;1255;48.716;9.124;2023-07-30T03:59:21;17.10;99.90
2489;DHT22;1255;48.716;9.124;2023-07-30T04:01:47;17.10;99.90
2489;DHT22;1255;48.716;9.124;2023-07-30T04:04:14;17.10;99.90
2489;DHT22;1255;48.716;9.124;2023-07-30T04:06:41;17.10;99.90
2489;DHT22;1255;48.716;9.124;2023-07-30T04:09:07;17.10;99.90
2489;DHT22;1255;48.716;9.124;2023-07-30T04:11:35;17.10;99.90
2489;DHT22;1255;48.716;9.124;2023-07-30T04:14:02;17.20;99.90
2489;DHT22;1255;48.716;9.124;2023-07-30T04:16:30;17.20;99.90
2489;DHT22;1255;48.716;9.124;2023-07-30T04:18:57;17.20;99.90
2489;DHT22;1255;48.716;9.124;2023-07-30T04:21:24;17.20;99.90
2489;DHT22;1255;48.716;9.124;2023-07-30T04:23:51;17.20;99.90
2489;DHT22;1255;48.716;9.124;2023-07-30T04:26:17;17.20;99.90
2489;DHT22;1255;48.716;9.124;2023-07-30T04:28:45;17.20;99.90
2489;DHT22;1255;48.716;9.124;2023-07-30T04:31:12;17.20;99.90
2489;DHT22;1255;48.716;9.124;2023-07-30T04:33:39;17.10;99.90
2489;DHT22;1255;48.716;9.124;2023-07-30T04:36:05;17.10;99.90
2489;DHT22;1255;48.716;9.124;2023-07-30T04:38:33;17.10;99.90
2489;DHT22;1255;48.716;9.124;2023-07-30T04:41:00;17.10;99.90
2489;DHT22;1255;48.716;9.124;2023-07-30T04:43:26;17.10;99.90
2489;DHT22;1255;48.716;9.124;2023-07-30T04:45:54;17.20;99.90
2489;DHT22;1255;48.716;9.124;2023-07-30T04:48:21;17.20;99.90
2489;DHT22;1255;48.716;9.124;2023-07-30T04:50:48;17.20;99.90
2489;DHT22;1255;48.716;9.124;2023-07-30T04:53:14;17.10;99.90
2489;DHT22;1255;48.716;9.124;2023-07-30T04:55:42;17.20;99.90
2489;DHT22;1255;48.716;9.124;2023-07-30T04:58:09;17.20;99.90
2489;DHT22;1255;48.716;9.124;2023-07-30T05:00:35;17.20;99.90
2489;DHT22;1255;48.716;9.124;2023-07-30T05:03:04;17.20;99.90
2489;DHT22;1255;48.716;9.124;2023-07-30T05:05:30;17.20;99.90
2489;DHT22;1255;48.716;9.124;2023-07-30T05:07:57;17.20;99.90
2489;DHT22;1255;48.716;9.124;2023-07-30T05:10:24;17.20;99.90
2489;DHT22;1255;48.716;9.124;2023-07-30T05:12:50;17.20;99.90
2489;DHT22;1255;48.716;9.124;2023-07-30T05:15:17;17.20;99.90
2489;DHT22;1255;48.716;9.124;2023-07-30T05:17:44;17.20;99.90
2489;DHT22;1255;48.716;9.124;2023-07-30T05:20:12;17.20;99.90
2489;DHT22;1255;48.716;9.124;2023-07-30T05:22:39;17.20;99.90
2489;DHT22;1255;48.716;9.124;2023-07-30T05:25:06;17.20;99.90
2489;DHT22;1255;48.716;9.124;2023-07-30T05:27:33;17.30;99.90
2489;DHT22;1255;48.716;9.124;2023-07-30T05:30:00;17.30;99.90
2489;DHT22;1255;48.716;9.124;2023-07-30T05:32:26;17.30;99.90
2489;DHT22;1255;48.716;9.124;2023-07-30T05:34:53;17.30;99.90
2489;DHT22;1255;48.716;9.124;2023-07-30T05:37:21;17.40;99.90
2489;DHT22;1255;48.716;9.124;2023-07-30T05:39:48;17.40;99.90
2489;DHT22;1255;48.716;9.124;2023-07-30T05:42:15;17.40;99.90
2489;DHT22;1255;48.716;9.124;2023-07-30T05:44:42;17.40;99.90
2489;DHT22;1255;48.716;9.124;2023-07-30T05:47:08;17.40;99.90
2489;DHT22;1255;48.716;9.124;2023-07-30T05:49:35;17.50;99.90
2489;DHT22;1255;48.716;9.124;2023-07-30T05:52:02;17.50;99.90
2489;DHT22;1255;48.716;9.124;2023-07-30T05:54:30;17.50;99.90
2489;DHT22;1255;48.716;9.124;2023-07-30T05:56:57;17.50;99.90
2489;DHT22;1255;48.716;9.124;2023-07-30T05:59:24;17.60;99.90
2489;DHT22;1255;48.716;9.124;2023-07-30T06:01:51;17.60;99.90
2489;DHT22;1255;48.716;9.124;2023-07-30T06:04:18;17.70;99.90
2489;DHT22;1255;48.716;9.124;2023-07-30T06:06:45;17.70;99.90
2489;DHT22;1255;48.716;9.124;2023-07-30T06:09:12;17.70;99.90
2489;DHT22;1255;48.716;9.124;2023-07-30T06:11:41;17.70;99.90
2489;DHT22;1255;48.716;9.124;2023-07-30T06:14:08;17.80;99.90
2489;DHT22;1255;48.716;9.124;2023-07-30T06:16:35;17.80;99.90
2489;DHT22;1255;48.716;9.124;2023-07-30T06:19:02;17.80;99.90
2489;DHT22;1255;48.716;9.124;2023-07-30T06:21:29;17.80;99.90
2489;DHT22;1255;48.716;9.124;2023-07-30T06:23:56;17.90;99.90
2489;DHT22;1255;48.716;9.124;2023-07-30T06:26:23;18.00;99.90
2489;DHT22;1255;48.716;9.124;2023-07-30T06:28:51;18.00;99.90
2489;DHT22;1255;48.716;9.124;2023-07-30T06:31:18;18.00;99.90
2489;DHT22;1255;48.716;9.124;2023-07-30T06:33:45;18.10;99.90
2489;DHT22;1255;48.716;9.124;2023-07-30T06:36:12;18.10;99.90
2489;DHT22;1255;48.716;9.124;2023-07-30T06:38:39;18.20;99.90
2489;DHT22;1255;48.716;9.124;2023-07-30T06:41:05;18.30;99.90
2489;DHT22;1255;48.716;9.124;2023-07-30T06:43:33;18.40;99.90
2489;DHT22;1255;48.716;9.124;2023-07-30T06:46:01;18.40;99.90
2489;DHT22;1255;48.716;9.124;2023-07-30T06:48:29;18.40;99.90
2489;DHT22;1255;48.716;9.124;2023-07-30T06:50:56;18.40;99.90
2489;DHT22;1255;48.716;9.124;2023-07-30T06:53:23;18.50;99.90
2489;DHT22;1255;48.716;9.124;2023-07-30T06:55:49;18.60;99.90
2489;DHT22;1255;48.716;9.124;2023-07-30T06:58:16;18.70;99.90
2489;DHT22;1255;48.716;9.124;2023-07-30T07:00:43;18.80;99.90
2489;DHT22;1255;48.716;9.124;2023-07-30T07:03:11;18.80;99.90
2489;DHT22;1255;48.716;9.124;2023-07-30T07:05:38;18.80;99.90
2489;DHT22;1255;48.716;9.124;2023-07-30T07:08:05;18.80;99.90
2489;DHT22;1255;48.716;9.124;2023-07-30T07:10:31;18.80;99.90
2489;DHT22;1255;48.716;9.124;2023-07-30T07:12:57;18.80;99.90
2489;DHT22;1255;48.716;9.124;2023-07-30T07:15:24;18.80;99.90
2489;DHT22;1255;48.716;9.124;2023-07-30T07:17:51;18.80;99.90
2489;DHT22;1255;48.716;9.124;2023-07-30T07:20:19;18.80;99.90
2489;DHT22;1255;48.716;9.124;2023-07-30T07:22:46;18.80;99.90
2489;DHT22;1255;48.716;9.124;2023-07-30T07:25:14;18.80;99.90
2489;DHT22;1255;48.716;9.124;2023-07-30T07:27:44;18.80;99.90
2489;DHT22;1255;48.716;9.124;2023-07-30T07:30:11;18.80;99.90
2489;DHT22;1255;48.716;9.124;2023-07-30T07:32:38;18.80;99.90
2489;DHT22;1255;48.716;9.124;2023-07-30T07:35:06;18.70;99.90
2489;DHT22;1255;48.716;9.124;2023-07-30T07:37:34;18.60;99.90
2489;DHT22;1255;48.716;9.124;2023-07-30T07:40:01;18.50;99.90
2489;DHT22;1255;48.716;9.124;2023-07-30T07:42:29;18.40;99.90
2489;DHT22;1255;48.716;9.124;2023-07-30T07:44:56;18.50;99.90
2489;DHT22;1255;48.716;9.124;2023-07-30T07:47:23;18.50;99.90
2489;DHT22;1255;48.716;9.124;2023-07-30T07:49:49;18.50;99.90
2489;DHT22;1255;48.716;9.124;2023-07-30T07:52:16;18.50;99.90
2489;DHT22;1255;48.716;9.124;2023-07-30T07:54:44;18.50;99.90
2489;DHT22;1255;48.716;9.124;2023-07-30T07:57:11;18.50;99.90
2489;DHT22;1255;48.716;9.124;2023-07-30T07:59:38;18.50;99.90
2489;DHT22;1255;48.716;9.124;2023-07-30T08:02:07;18.50;99.90
2489;DHT22;1255;48.716;9.124;2023-07-30T08:04:33;18.60;99.90
2489;DHT22;1255;48.716;9.124;2023-07-30T08:07:00;18.60;99.90
2489;DHT22;1255;48.716;9.124;2023-07-30T08:09:28;18.70;99.90
2489;DHT22;1255;48.716;9.124;2023-07-30T08:11:57;18.70;99.90
2489;DHT22;1255;48.716;9.124;2023-07-30T08:14:23;18.80;99.90
2489;DHT22;1255;48.716;9.124;2023-07-30T08:16:50;18.90;99.90
2489;DHT22;1255;48.716;9.124;2023-07-30T08:19:17;18.90;99.90
2489;DHT22;1255;48.716;9.124;2023-07-30T08:21:44;19.00;99.90
2489;DHT22;1255;48.716;9.124;2023-07-30T08:24:10;19.10;99.90
2489;DHT22;1255;48.716;9.124;2023-07-30T08:26:37;19.30;99.90
2489;DHT22;1255;48.716;9.124;2023-07-30T08:29:05;19.50;99.90
2489;DHT22;1255;48.716;9.124;2023-07-30T08:31:35;19.80;99.90
2489;DHT22;1255;48.716;9.124;2023-07-30T08:34:02;20.00;99.90
2489;DHT22;1255;48.716;9.124;2023-07-30T08:36:29;20.10;99.90
2489;DHT22;1255;48.716;9.124;2023-07-30T08:38:55;20.10;99.90
2489;DHT22;1255;48.716;9.124;2023-07-30T08:41:22;20.10;99.90
2489;DHT22;1255;48.716;9.124;2023-07-30T08:43:49;20.00;99.90
2489;DHT22;1255;48.716;9.124;2023-07-30T08:46:19;20.00;99.90
2489;DHT22;1255;48.716;9.124;2023-07-30T08:48:46;20.00;99.90
2489;DHT22;1255;48.716;9.124;2023-07-30T08:51:13;20.00;99.90
2489;DHT22;1255;48.716;9.124;2023-07-30T08:53:41;20.00;99.90
2489;DHT22;1255;48.716;9.124;2023-07-30T08:56:09;20.10;99.90
2489;DHT22;1255;48.716;9.124;2023-07-30T08:58:37;20.20;99.90
2489;DHT22;1255;48.716;9.124;2023-07-30T09:01:09;20.30;99.90
2489;DHT22;1255;48.716;9.124;2023-07-30T09:03:41;20.40;99.90
2489;DHT22;1255;48.716;9.124;2023-07-30T09:06:08;20.60;99.90
2489;DHT22;1255;48.716;9.124;2023-07-30T09:08:35;20.80;99.90
2489;DHT22;1255;48.716;9.124;2023-07-30T09:11:09;20.90;99.90
2489;DHT22;1255;48.716;9.124;2023-07-30T09:13:40;21.00;99.90
2489;DHT22;1255;48.716;9.124;2023-07-30T09:16:11;20.80;99.90
2489;DHT22;1255;48.716;9.124;2023-07-30T09:18:45;20.60;99.90
2489;DHT22;1255;48.716;9.124;2023-07-30T09:21:12;20.50;99.90
2489;DHT22;1255;48.716;9.124;2023-07-30T09:23:40;20.30;99.90
2489;DHT22;1255;48.716;9.124;2023-07-30T09:26:07;20.20;99.90
2489;DHT22;1255;48.716;9.124;2023-07-30T09:28:34;20.10;99.90
2489;DHT22;1255;48.716;9.124;2023-07-30T09:31:12;20.00;99.90
2489;DHT22;1255;48.716;9.124;2023-07-30T09:33:47;19.70;99.90
2489;DHT22;1255;48.716;9.124;2023-07-30T09:36:18;19.60;99.90
2489;DHT22;1255;48.716;9.124;2023-07-30T09:38:46;19.40;99.90
2489;DHT22;1255;48.716;9.124;2023-07-30T09:41:15;19.40;99.90
2489;DHT22;1255;48.716;9.124;2023-07-30T09:43:43;19.30;99.90
2489;DHT22;1255;48.716;9.124;2023-07-30T09:46:13;19.30;99.90
2489;DHT22;1255;48.716;9.124;2023-07-30T09:48:42;19.30;99.90
2489;DHT22;1255;48.716;9.124;2023-07-30T09:51:11;19.40;99.90
2489;DHT22;1255;48.716;9.124;2023-07-30T09:53:38;19.40;99.90
2489;DHT22;1255;48.716;9.124;2023-07-30T09:56:05;19.50;99.90
2489;DHT22;1255;48.716;9.124;2023-07-30T09:58:32;19.50;99.90
2489;DHT22;1255;48.716;9.124;2023-07-30T10:01:03;19.60;99.90
2489;DHT22;1255;48.716;9.124;2023-07-30T10:03:44;19.70;99.90
2489;DHT22;1255;48.716;9.124;2023-07-30T10:14:00;20.40;99.90
2489;DHT22;1255;48.716;9.124;2023-07-30T10:16:59;20.70;99.90
2489;DHT22;1255;48.716;9.124;2023-07-30T10:19:43;21.00;99.90
2489;DHT22;1255;48.716;9.124;2023-07-30T10:22:28;21.20;99.90
2489;DHT22;1255;48.716;9.124;2023-07-30T10:28:45;21.40;99.90
2489;DHT22;1255;48.716;9.124;2023-07-30T10:31:52;21.50;99.90
2489;DHT22;1255;48.716;9.124;2023-07-30T10:38:12;21.40;99.90
2489;DHT22;1255;48.716;9.124;2023-07-30T10:40:41;21.70;99.90
2489;DHT22;1255;48.716;9.124;2023-07-30T10:43:18;21.80;99.90
2489;DHT22;1255;48.716;9.124;2023-07-30T10:45:51;21.80;99.90
2489;DHT22;1255;48.716;9.124;2023-07-30T10:48:18;21.70;99.90
2489;DHT22;1255;48.716;9.124;2023-07-30T10:50:45;21.90;99.90
2489;DHT22;1255;48.716;9.124;2023-07-30T10:53:17;22.10;99.90
2489;DHT22;1255;48.716;9.124;2023-07-30T10:55:45;22.20;99.90
2489;DHT22;1255;48.716;9.124;2023-07-30T10:58:13;22.30;99.90
2489;DHT22;1255;48.716;9.124;2023-07-30T11:00:42;22.20;99.90
2489;DHT22;1255;48.716;9.124;2023-07-30T11:03:10;22.20;99.90
2489;DHT22;1255;48.716;9.124;2023-07-30T11:05:38;22.20;99.90
2489;DHT22;1255;48.716;9.124;2023-07-30T11:08:05;22.10;99.90
2489;DHT22;1255;48.716;9.124;2023-07-30T11:10:42;22.10;99.90
2489;DHT22;1255;48.716;9.124;2023-07-30T11:13:10;22.00;99.90
2489;DHT22;1255;48.716;9.124;2023-07-30T11:15:42;21.90;99.90
2489;DHT22;1255;48.716;9.124;2023-07-30T11:18:11;22.00;99.90
2489;DHT22;1255;48.716;9.124;2023-07-30T11:20:39;21.80;99.90
2489;DHT22;1255;48.716;9.124;2023-07-30T11:23:20;21.70;99.90
2489;DHT22;1255;48.716;9.124;2023-07-30T11:25:48;21.50;99.90
2489;DHT22;1255;48.716;9.124;2023-07-30T11:28:26;21.40;99.90
2489;DHT22;1255;48.716;9.124;2023-07-30T11:30:53;21.50;99.90
2489;DHT22;1255;48.716;9.124;2023-07-30T11:33:22;21.70;99.90
2489;DHT22;1255;48.716;9.124;2023-07-30T11:35:49;21.90;99.90
2489;DHT22;1255;48.716;9.124;2023-07-30T11:38:15;22.20;99.90
2489;DHT22;1255;48.716;9.124;2023-07-30T11:40:45;22.20;99.90
2489;DHT22;1255;48.716;9.124;2023-07-30T11:43:12;22.20;99.90
2489;DHT22;1255;48.716;9.124;2023-07-30T11:45:39;22.10;99.90
2489;DHT22;1255;48.716;9.124;2023-07-30T11:48:06;21.90;99.90
2489;DHT22;1255;48.716;9.124;2023-07-30T11:50:44;21.80;99.90
2489;DHT22;1255;48.716;9.124;2023-07-30T11:53:11;21.80;99.90
2489;DHT22;1255;48.716;9.124;2023-07-30T11:55:38;21.80;99.90
2489;DHT22;1255;48.716;9.124;2023-07-30T11:58:05;21.60;99.90
2489;DHT22;1255;48.716;9.124;2023-07-30T12:00:32;21.70;99.90
2489;DHT22;1255;48.716;9.124;2023-07-30T12:03:02;21.90;99.90
2489;DHT22;1255;48.716;9.124;2023-07-30T12:05:32;22.00;99.90
2489;DHT22;1255;48.716;9.124;2023-07-30T12:08:01;22.00;99.90
2489;DHT22;1255;48.716;9.124;2023-07-30T12:10:41;22.00;99.90
2489;DHT22;1255;48.716;9.124;2023-07-30T12:13:11;21.90;99.90
2489;DHT22;1255;48.716;9.124;2023-07-30T12:15:38;22.10;99.90
2489;DHT22;1255;48.716;9.124;2023-07-30T12:18:05;22.20;99.90
2489;DHT22;1255;48.716;9.124;2023-07-30T12:20:32;22.20;99.90
2489;DHT22;1255;48.716;9.124;2023-07-30T12:22:58;22.20;99.90
2489;DHT22;1255;48.716;9.124;2023-07-30T12:25:27;22.20;99.90
2489;DHT22;1255;48.716;9.124;2023-07-30T12:27:54;22.10;99.90
2489;DHT22;1255;48.716;9.124;2023-07-30T12:30:21;22.10;99.90
2489;DHT22;1255;48.716;9.124;2023-07-30T12:32:47;21.90;99.90
2489;DHT22;1255;48.716;9.124;2023-07-30T12:35:14;21.70;99.90
2489;DHT22;1255;48.716;9.124;2023-07-30T12:37:41;21.50;99.90
2489;DHT22;1255;48.716;9.124;2023-07-30T12:40:08;21.40;99.90
2489;DHT22;1255;48.716;9.124;2023-07-30T12:42:36;21.50;99.90
2489;DHT22;1255;48.716;9.124;2023-07-30T12:45:04;21.50;99.90
2489;DHT22;1255;48.716;9.124;2023-07-30T12:47:32;21.40;99.90
2489;DHT22;1255;48.716;9.124;2023-07-30T12:50:00;21.40;99.90
2489;DHT22;1255;48.716;9.124;2023-07-30T12:52:27;21.40;99.90
2489;DHT22;1255;48.716;9.124;2023-07-30T12:54:54;21.30;99.90
2489;DHT22;1255;48.716;9.124;2023-07-30T12:57:21;21.30;99.90
2489;DHT22;1255;48.716;9.124;2023-07-30T12:59:49;21.20;99.90
2489;DHT22;1255;48.716;9.124;2023-07-30T13:02:15;21.00;99.90
2489;DHT22;1255;48.716;9.124;2023-07-30T13:04:42;21.00;99.90
2489;DHT22;1255;48.716;9.124;2023-07-30T13:07:09;21.00;99.90
2489;DHT22;1255;48.716;9.124;2023-07-30T13:09:35;21.20;99.90
2489;DHT22;1255;48.716;9.124;2023-07-30T13:12:02;21.60;99.90
2489;DHT22;1255;48.716;9.124;2023-07-30T13:14:29;22.00;99.90
2489;DHT22;1255;48.716;9.124;2023-07-30T13:16:57;22.30;99.90
2489;DHT22;1255;48.716;9.124;2023-07-30T13:19:25;22.60;99.90
2489;DHT22;1255;48.716;9.124;2023-07-30T13:21:53;22.80;99.90
2489;DHT22;1255;48.716;9.124;2023-07-30T13:24:20;23.00;99.90
2489;DHT22;1255;48.716;9.124;2023-07-30T13:26:47;23.10;99.90
2489;DHT22;1255;48.716;9.124;2023-07-30T13:29:13;23.10;99.90
2489;DHT22;1255;48.716;9.124;2023-07-30T13:31:40;23.00;99.90
2489;DHT22;1255;48.716;9.124;2023-07-30T13:34:08;22.80;99.90
2489;DHT22;1255;48.716;9.124;2023-07-30T13:36:35;22.50;99.90
2489;DHT22;1255;48.716;9.124;2023-07-30T13:39:02;22.20;99.90
2489;DHT22;1255;48.716;9.124;2023-07-30T13:41:28;22.00;99.90
2489;DHT22;1255;48.716;9.124;2023-07-30T13:43:55;21.90;99.90
2489;DHT22;1255;48.716;9.124;2023-07-30T13:46:22;21.80;99.90
2489;DHT22;1255;48.716;9.124;2023-07-30T13:48:48;21.90;99.90
2489;DHT22;1255;48.716;9.124;2023-07-30T13:51:16;22.10;99.90
2489;DHT22;1255;48.716;9.124;2023-07-30T13:53:43;22.50;99.90
2489;DHT22;1255;48.716;9.124;2023-07-30T13:56:10;22.80;99.90
2489;DHT22;1255;48.716;9.124;2023-07-30T13:58:37;23.00;99.90
2489;DHT22;1255;48.716;9.124;2023-07-30T14:01:05;23.10;99.90
2489;DHT22;1255;48.716;9.124;2023-07-30T14:03:34;23.00;99.90
2489;DHT22;1255;48.716;9.124;2023-07-30T14:06:01;23.20;99.90
2489;DHT22;1255;48.716;9.124;2023-07-30T14:08:29;23.30;99.90
2489;DHT22;1255;48.716;9.124;2023-07-30T14:10:55;23.20;99.90
2489;DHT22;1255;48.716;9.124;2023-07-30T14:13:23;23.00;99.90
2489;DHT22;1255;48.716;9.124;2023-07-30T14:15:49;23.20;99.90
2489;DHT22;1255;48.716;9.124;2023-07-30T14:18:17;23.30;99.90
2489;DHT22;1255;48.716;9.124;2023-07-30T14:20:44;23.40;99.90
2489;DHT22;1255;48.716;9.124;2023-07-30T14:23:11;23.20;99.90
2489;DHT22;1255;48.716;9.124;2023-07-30T14:25:39;23.00;99.90
2489;DHT22;1255;48.716;9.124;2023-07-30T14:28:06;23.00;99.90
2489;DHT22;1255;48.716;9.124;2023-07-30T14:30:32;23.00;99.90
2489;DHT22;1255;48.716;9.124;2023-07-30T14:33:01;23.10;99.90
2489;DHT22;1255;48.716;9.124;2023-07-30T14:35:27;23.10;99.90
2489;DHT22;1255;48.716;9.124;2023-07-30T14:37:54;23.20;99.90
2489;DHT22;1255;48.716;9.124;2023-07-30T14:40:21;23.30;99.90
2489;DHT22;1255;48.716;9.124;2023-07-30T14:42:49;23.30;99.90
2489;DHT22;1255;48.716;9.124;2023-07-30T14:45:16;23.20;99.90
2489;DHT22;1255;48.716;9.124;2023-07-30T14:47:43;23.20;99.90
2489;DHT22;1255;48.716;9.124;2023-07-30T14:50:10;23.10;99.90
2489;DHT22;1255;48.716;9.124;2023-07-30T14:52:37;23.10;99.90
2489;DHT22;1255;48.716;9.124;2023-07-30T14:55:04;23.20;99.90
2489;DHT22;1255;48.716;9.124;2023-07-30T14:57:31;23.30;99.90
2489;DHT22;1255;48.716;9.124;2023-07-30T14:59:59;23.40;99.90
2489;DHT22;1255;48.716;9.124;2023-07-30T15:02:26;23.30;99.90
2489;DHT22;1255;48.716;9.124;2023-07-30T15:04:53;23.30;99.90
2489;DHT22;1255;48.716;9.124;2023-07-30T15:07:20;23.20;99.90
2489;DHT22;1255;48.716;9.124;2023-07-30T15:09:50;23.10;99.90
2489;DHT22;1255;48.716;9.124;2023-07-30T15:12:17;23.10;99.90
2489;DHT22;1255;48.716;9.124;2023-07-30T15:14:45;23.10;99.90
2489;DHT22;1255;48.716;9.124;2023-07-30T15:17:13;23.00;99.90
2489;DHT22;1255;48.716;9.124;2023-07-30T15:19:40;22.80;99.90
2489;DHT22;1255;48.716;9.124;2023-07-30T15:22:06;22.70;99.90
2489;DHT22;1255;48.716;9.124;2023-07-30T15:24:33;22.70;99.90
2489;DHT22;1255;48.716;9.124;2023-07-30T15:27:00;22.70;99.90
2489;DHT22;1255;48.716;9.124;2023-07-30T15:29:26;22.70;99.90
2489;DHT22;1255;48.716;9.124;2023-07-30T15:31:53;22.70;99.90
2489;DHT22;1255;48.716;9.124;2023-07-30T15:34:23;22.80;99.90
2489;DHT22;1255;48.716;9.124;2023-07-30T15:36:50;22.80;99.90
2489;DHT22;1255;48.716;9.124;2023-07-30T15:39:19;22.70;99.90
2489;DHT22;1255;48.716;9.124;2023-07-30T15:41:46;22.60;99.90
2489;DHT22;1255;48.716;9.124;2023-07-30T15:44:13;22.50;99.90
2489;DHT22;1255;48.716;9.124;2023-07-30T15:46:45;22.50;99.90
2489;DHT22;1255;48.716;9.124;2023-07-30T15:49:12;22.50;99.90
2489;DHT22;1255;48.716;9.124;2023-07-30T15:51:40;22.50;99.90
2489;DHT22;1255;48.716;9.124;2023-07-30T15:54:07;22.60;99.90
2489;DHT22;1255;48.716;9.124;2023-07-30T15:56:33;22.60;99.90
2489;DHT22;1255;48.716;9.124;2023-07-30T15:59:00;22.40;99.90
2489;DHT22;1255;48.716;9.124;2023-07-30T16:01:27;22.30;99.90
2489;DHT22;1255;48.716;9.124;2023-07-30T16:03:53;22.40;99.90
2489;DHT22;1255;48.716;9.124;2023-07-30T16:06:22;22.40;99.90
2489;DHT22;1255;48.716;9.124;2023-07-30T16:08:52;22.40;99.90
2489;DHT22;1255;48.716;9.124;2023-07-30T16:11:19;22.40;99.90
2489;DHT22;1255;48.716;9.124;2023-07-30T16:13:46;22.40;99.90
2489;DHT22;1255;48.716;9.124;2023-07-30T16:16:15;22.40;99.90
2489;DHT22;1255;48.716;9.124;2023-07-30T16:18:44;22.30;99.90
2489;DHT22;1255;48.716;9.124;2023-07-30T16:21:11;22.30;99.90